sensor_id;sensor_type;location;lat;lon;timestamp;pressure;altitude;pressure_sealevel;temperature;humidity
11314;BME280;5712;48.858;9.206;2022-12-29T00:01:51;97677.38;;;9.03;79.24
11314;BME280;5712;48.858;9.206;2022-12-29T00:04:18;97674.63;;;9.05;78.96
11314;BME280;5712;48.858;9.206;2022-12-29T00:06:45;97679.78;;;9.06;79.15
11314;BME280;5712;48.858;9.206;2022-12-29T00:09:11;97673.78;;;9.04;79.01
11314;BME280;5712;48.858;9.206;2022-12-29T00:11:38;97666.81;;;9.03;79.24
11314;BME280;5712;48.858;9.206;2022-12-29T00:14:05;97669.38;;;9.05;78.54
11314;BME280;5712;48.858;9.206;2022-12-29T00:16:51;97661.31;;;9.06;78.76
11314;BME280;5712;48.858;9.206;2022-12-29T00:19:18;97658.06;;;9.03;78.95
11314;BME280;5712;48.858;9.206;2022-12-29T00:22:02;97668.84;;;9.00;79.66
11314;BME280;5712;48.858;9.206;2022-12-29T00:24:46;97671.34;;;9.01;80.51
11314;BME280;5712;48.858;9.206;2022-12-29T00:27:31;97669.38;;;9.05;80.83
11314;BME280;5712;48.858;9.206;2022-12-29T00:30:17;97657.88;;;9.06;80.43
11314;BME280;5712;48.858;9.206;2022-12-29T00:33:09;97663.66;;;9.11;81.12
11314;BME280;5712;48.858;9.206;2022-12-29T00:35:57;97660.06;;;9.12;80.96
11314;BME280;5712;48.858;9.206;2022-12-29T00:38:26;97653.84;;;9.13;80.54
11314;BME280;5712;48.858;9.206;2022-12-29T00:41:10;97656.25;;;9.16;79.60
11314;BME280;5712;48.858;9.206;2022-12-29T00:43:54;97655.19;;;9.18;79.65
11314;BME280;5712;48.858;9.206;2022-12-29T00:46:36;97660.16;;;9.23;80.66
11314;BME280;5712;48.858;9.206;2022-12-29T00:49:04;97647.78;;;9.23;80.49
11314;BME280;5712;48.858;9.206;2022-12-29T00:51:49;97645.88;;;9.25;79.16
11314;BME280;5712;48.858;9.206;2022-12-29T00:54:16;97642.41;;;9.25;78.88
11314;BME280;5712;48.858;9.206;2022-12-29T00:56:43;97653.50;;;9.30;78.85
11314;BME280;5712;48.858;9.206;2022-12-29T00:59:11;97646.41;;;9.30;78.37
11314;BME280;5712;48.858;9.206;2022-12-29T01:01:38;97652.28;;;9.34;78.75
11314;BME280;5712;48.858;9.206;2022-12-29T01:04:07;97649.03;;;9.30;78.88
11314;BME280;5712;48.858;9.206;2022-12-29T01:06:35;97649.13;;;9.29;78.69
11314;BME280;5712;48.858;9.206;2022-12-29T01:09:02;97655.38;;;9.28;79.62
11314;BME280;5712;48.858;9.206;2022-12-29T01:11:46;97671.63;;;9.22;79.58
11314;BME280;5712;48.858;9.206;2022-12-29T01:14:12;97666.25;;;9.23;79.54
11314;BME280;5712;48.858;9.206;2022-12-29T01:16:39;97669.75;;;9.24;79.67
11314;BME280;5712;48.858;9.206;2022-12-29T01:19:07;97669.75;;;9.24;80.41
11314;BME280;5712;48.858;9.206;2022-12-29T01:21:33;97678.63;;;9.23;79.98
11314;BME280;5712;48.858;9.206;2022-12-29T01:24:00;97677.84;;;9.21;80.93
11314;BME280;5712;48.858;9.206;2022-12-29T01:26:26;97682.06;;;9.23;81.23
11314;BME280;5712;48.858;9.206;2022-12-29T01:28:53;97680.50;;;9.21;80.98
11314;BME280;5712;48.858;9.206;2022-12-29T01:31:19;97681.44;;;9.20;81.36
11314;BME280;5712;48.858;9.206;2022-12-29T01:33:46;97684.94;;;9.20;81.63
11314;BME280;5712;48.858;9.206;2022-12-29T01:36:15;97680.59;;;9.19;82.84
11314;BME280;5712;48.858;9.206;2022-12-29T01:38:42;97686.00;;;9.18;83.47
11314;BME280;5712;48.858;9.206;2022-12-29T01:41:10;97682.59;;;9.16;83.46
11314;BME280;5712;48.858;9.206;2022-12-29T01:43:42;97673.78;;;9.17;83.44
11314;BME280;5712;48.858;9.206;2022-12-29T01:46:16;97684.31;;;9.17;84.34
11314;BME280;5712;48.858;9.206;2022-12-29T01:48:46;97690.41;;;9.17;85.02
11314;BME280;5712;48.858;9.206;2022-12-29T01:51:16;97689.59;;;9.17;85.36
11314;BME280;5712;48.858;9.206;2022-12-29T01:53:44;97693.56;;;9.22;85.18
11314;BME280;5712;48.858;9.206;2022-12-29T01:56:15;97681.97;;;9.25;84.44
11314;BME280;5712;48.858;9.206;2022-12-29T01:58:47;97682.59;;;9.28;84.04
11314;BME280;5712;48.858;9.206;2022-12-29T02:01:16;97685.97;;;9.30;84.57
11314;BME280;5712;48.858;9.206;2022-12-29T02:03:46;97671.16;;;9.40;83.35
11314;BME280;5712;48.858;9.206;2022-12-29T02:06:18;97665.03;;;9.40;82.49
11314;BME280;5712;48.858;9.206;2022-12-29T02:08:49;97656.69;;;9.46;82.56
11314;BME280;5712;48.858;9.206;2022-12-29T02:11:16;97657.44;;;9.48;82.29
11314;BME280;5712;48.858;9.206;2022-12-29T02:13:43;97643.41;;;9.47;81.07
11314;BME280;5712;48.858;9.206;2022-12-29T02:16:20;97650.69;;;9.44;82.30
11314;BME280;5712;48.858;9.206;2022-12-29T02:19:04;97647.34;;;9.42;82.99
11314;BME280;5712;48.858;9.206;2022-12-29T02:21:55;97638.22;;;9.46;81.64
11314;BME280;5712;48.858;9.206;2022-12-29T02:24:41;97639.28;;;9.43;82.21
11314;BME280;5712;48.858;9.206;2022-12-29T02:30:44;97645.31;;;9.45;81.61
11314;BME280;5712;48.858;9.206;2022-12-29T02:33:20;97639.91;;;9.47;81.34
11314;BME280;5712;48.858;9.206;2022-12-29T02:35:54;97641.63;;;9.48;81.02
11314;BME280;5712;48.858;9.206;2022-12-29T02:38:35;97642.25;;;9.39;80.82
11314;BME280;5712;48.858;9.206;2022-12-29T02:41:15;97635.22;;;9.39;79.99
11314;BME280;5712;48.858;9.206;2022-12-29T02:43:48;97639.53;;;9.40;80.99
11314;BME280;5712;48.858;9.206;2022-12-29T02:46:21;97635.06;;;9.41;81.86
11314;BME280;5712;48.858;9.206;2022-12-29T02:48:57;97623.69;;;9.40;81.70
11314;BME280;5712;48.858;9.206;2022-12-29T02:51:32;97628.53;;;9.46;81.73
11314;BME280;5712;48.858;9.206;2022-12-29T02:54:00;97621.44;;;9.47;81.52
11314;BME280;5712;48.858;9.206;2022-12-29T02:56:44;97613.03;;;9.42;80.26
11314;BME280;5712;48.858;9.206;2022-12-29T02:59:12;97619.91;;;9.44;80.95
11314;BME280;5712;48.858;9.206;2022-12-29T03:01:57;97615.72;;;9.53;79.89
11314;BME280;5712;48.858;9.206;2022-12-29T03:04:51;97620.88;;;9.54;79.96
11314;BME280;5712;48.858;9.206;2022-12-29T03:07:24;97611.19;;;9.55;79.50
11314;BME280;5712;48.858;9.206;2022-12-29T03:10:01;97609.88;;;9.60;78.57
11314;BME280;5712;48.858;9.206;2022-12-29T03:12:39;97615.16;;;9.60;78.67
11314;BME280;5712;48.858;9.206;2022-12-29T03:15:29;97614.00;;;9.64;78.65
11314;BME280;5712;48.858;9.206;2022-12-29T03:18:22;97617.00;;;9.71;77.85
11314;BME280;5712;48.858;9.206;2022-12-29T03:20:52;97602.88;;;9.72;78.14
11314;BME280;5712;48.858;9.206;2022-12-29T03:23:21;97599.28;;;9.73;78.47
11314;BME280;5712;48.858;9.206;2022-12-29T03:25:52;97602.03;;;9.71;78.60
11314;BME280;5712;48.858;9.206;2022-12-29T03:28:23;97608.97;;;9.72;79.29
11314;BME280;5712;48.858;9.206;2022-12-29T03:30:50;97592.34;;;9.72;79.15
11314;BME280;5712;48.858;9.206;2022-12-29T03:33:21;97590.16;;;9.77;78.56
11314;BME280;5712;48.858;9.206;2022-12-29T03:35:51;97585.28;;;9.83;77.61
11314;BME280;5712;48.858;9.206;2022-12-29T03:38:23;97593.09;;;9.85;77.70
11314;BME280;5712;48.858;9.206;2022-12-29T03:40:55;97588.53;;;9.87;77.17
11314;BME280;5712;48.858;9.206;2022-12-29T03:43:23;97585.69;;;9.90;78.42
11314;BME280;5712;48.858;9.206;2022-12-29T03:45:49;97583.16;;;9.88;79.27
11314;BME280;5712;48.858;9.206;2022-12-29T03:48:16;97591.19;;;9.87;79.93
11314;BME280;5712;48.858;9.206;2022-12-29T03:50:44;97583.97;;;9.89;80.64
11314;BME280;5712;48.858;9.206;2022-12-29T03:53:10;97596.69;;;9.84;81.37
11314;BME280;5712;48.858;9.206;2022-12-29T03:55:37;97599.19;;;9.85;81.94
11314;BME280;5712;48.858;9.206;2022-12-29T03:58:03;97578.69;;;9.78;79.25
11314;BME280;5712;48.858;9.206;2022-12-29T04:00:30;97580.81;;;9.73;78.45
11314;BME280;5712;48.858;9.206;2022-12-29T04:02:56;97592.34;;;9.72;79.87
11314;BME280;5712;48.858;9.206;2022-12-29T04:05:22;97591.06;;;9.65;80.60
11314;BME280;5712;48.858;9.206;2022-12-29T04:07:50;97600.84;;;9.52;82.02
11314;BME280;5712;48.858;9.206;2022-12-29T04:10:17;97600.06;;;9.39;82.29
11314;BME280;5712;48.858;9.206;2022-12-29T04:12:43;97601.69;;;9.29;82.84
11314;BME280;5712;48.858;9.206;2022-12-29T04:15:11;97597.09;;;9.20;82.61
11314;BME280;5712;48.858;9.206;2022-12-29T04:17:38;97599.72;;;9.20;82.61
11314;BME280;5712;48.858;9.206;2022-12-29T04:20:05;97596.75;;;9.24;81.83
11314;BME280;5712;48.858;9.206;2022-12-29T04:22:58;97607.25;;;9.37;81.27
11314;BME280;5712;48.858;9.206;2022-12-29T04:25:24;97608.03;;;9.50;80.85
11314;BME280;5712;48.858;9.206;2022-12-29T04:27:51;97606.75;;;9.55;81.07
11314;BME280;5712;48.858;9.206;2022-12-29T04:30:17;97608.81;;;9.63;80.83
11314;BME280;5712;48.858;9.206;2022-12-29T04:32:44;97610.28;;;9.67;81.12
11314;BME280;5712;48.858;9.206;2022-12-29T04:35:10;97603.72;;;9.72;80.87
11314;BME280;5712;48.858;9.206;2022-12-29T04:37:36;97597.97;;;9.78;80.55
11314;BME280;5712;48.858;9.206;2022-12-29T04:40:06;97595.00;;;9.83;80.30
11314;BME280;5712;48.858;9.206;2022-12-29T04:42:32;97586.59;;;9.78;81.23
11314;BME280;5712;48.858;9.206;2022-12-29T04:44:59;97604.13;;;9.79;81.50
11314;BME280;5712;48.858;9.206;2022-12-29T04:47:25;97599.53;;;9.81;81.32
11314;BME280;5712;48.858;9.206;2022-12-29T04:49:52;97605.38;;;9.73;82.22
11314;BME280;5712;48.858;9.206;2022-12-29T04:52:18;97601.94;;;9.73;82.12
11314;BME280;5712;48.858;9.206;2022-12-29T04:54:45;97609.53;;;9.65;83.00
11314;BME280;5712;48.858;9.206;2022-12-29T04:57:12;97605.03;;;9.67;83.59
11314;BME280;5712;48.858;9.206;2022-12-29T04:59:39;97605.84;;;9.67;83.82
11314;BME280;5712;48.858;9.206;2022-12-29T05:02:05;97611.13;;;9.67;83.91
11314;BME280;5712;48.858;9.206;2022-12-29T05:04:32;97600.00;;;9.75;83.60
11314;BME280;5712;48.858;9.206;2022-12-29T05:06:58;97593.56;;;9.79;83.73
11314;BME280;5712;48.858;9.206;2022-12-29T05:09:25;97591.75;;;9.79;83.39
11314;BME280;5712;48.858;9.206;2022-12-29T05:11:51;97594.06;;;9.84;83.13
11314;BME280;5712;48.858;9.206;2022-12-29T05:14:19;97594.06;;;9.84;83.22
11314;BME280;5712;48.858;9.206;2022-12-29T05:16:45;97596.06;;;9.80;84.21
11314;BME280;5712;48.858;9.206;2022-12-29T05:19:12;97593.75;;;9.76;84.31
11314;BME280;5712;48.858;9.206;2022-12-29T05:21:38;97587.97;;;9.71;84.86
11314;BME280;5712;48.858;9.206;2022-12-29T05:24:05;97584.13;;;9.64;85.43
11314;BME280;5712;48.858;9.206;2022-12-29T05:26:32;97574.78;;;9.60;86.07
11314;BME280;5712;48.858;9.206;2022-12-29T05:28:58;97586.03;;;9.62;86.24
11314;BME280;5712;48.858;9.206;2022-12-29T05:31:26;97606.69;;;9.68;86.29
11314;BME280;5712;48.858;9.206;2022-12-29T05:33:53;97596.66;;;9.73;85.83
11314;BME280;5712;48.858;9.206;2022-12-29T05:36:19;97606.97;;;9.76;85.75
11314;BME280;5712;48.858;9.206;2022-12-29T05:38:46;97608.16;;;9.72;85.90
11314;BME280;5712;48.858;9.206;2022-12-29T05:41:12;97587.94;;;9.83;85.22
11314;BME280;5712;48.858;9.206;2022-12-29T05:43:39;97587.81;;;9.85;85.12
11314;BME280;5712;48.858;9.206;2022-12-29T05:46:05;97578.69;;;9.89;85.30
11314;BME280;5712;48.858;9.206;2022-12-29T05:48:33;97582.28;;;9.88;85.51
11314;BME280;5712;48.858;9.206;2022-12-29T05:50:59;97583.78;;;10.03;84.43
11314;BME280;5712;48.858;9.206;2022-12-29T05:53:26;97587.94;;;10.18;83.75
11314;BME280;5712;48.858;9.206;2022-12-29T05:55:52;97573.78;;;10.30;82.86
11314;BME280;5712;48.858;9.206;2022-12-29T05:58:19;97573.91;;;10.39;82.14
11314;BME280;5712;48.858;9.206;2022-12-29T06:00:46;97565.63;;;10.44;81.97
11314;BME280;5712;48.858;9.206;2022-12-29T06:03:12;97566.59;;;10.43;81.39
11314;BME280;5712;48.858;9.206;2022-12-29T06:05:40;97560.34;;;10.44;81.41
11314;BME280;5712;48.858;9.206;2022-12-29T06:08:07;97554.13;;;10.34;81.76
11314;BME280;5712;48.858;9.206;2022-12-29T06:10:33;97534.19;;;10.30;81.55
11314;BME280;5712;48.858;9.206;2022-12-29T06:12:59;97540.19;;;10.21;81.93
11314;BME280;5712;48.858;9.206;2022-12-29T06:15:26;97540.41;;;10.18;81.59
11314;BME280;5712;48.858;9.206;2022-12-29T06:17:52;97555.25;;;10.08;82.50
11314;BME280;5712;48.858;9.206;2022-12-29T06:20:19;97565.31;;;10.03;82.96
11314;BME280;5712;48.858;9.206;2022-12-29T06:22:47;97567.47;;;9.98;83.13
11314;BME280;5712;48.858;9.206;2022-12-29T06:25:14;97573.91;;;9.94;83.54
11314;BME280;5712;48.858;9.206;2022-12-29T06:27:41;97584.09;;;9.87;83.37
11314;BME280;5712;48.858;9.206;2022-12-29T06:30:09;97580.63;;;9.87;83.84
11314;BME280;5712;48.858;9.206;2022-12-29T06:32:36;97589.09;;;9.79;84.60
11314;BME280;5712;48.858;9.206;2022-12-29T06:35:02;97593.88;;;9.74;84.90
11314;BME280;5712;48.858;9.206;2022-12-29T06:37:29;97593.25;;;9.71;85.52
11314;BME280;5712;48.858;9.206;2022-12-29T06:39:57;97582.00;;;9.69;85.61
11314;BME280;5712;48.858;9.206;2022-12-29T06:42:24;97579.09;;;9.61;85.77
11314;BME280;5712;48.858;9.206;2022-12-29T06:44:50;97586.56;;;9.67;85.21
11314;BME280;5712;48.858;9.206;2022-12-29T06:47:17;97580.06;;;9.71;85.24
11314;BME280;5712;48.858;9.206;2022-12-29T06:49:44;97592.09;;;9.75;85.15
11314;BME280;5712;48.858;9.206;2022-12-29T06:52:10;97591.88;;;9.78;85.15
11314;BME280;5712;48.858;9.206;2022-12-29T06:54:37;97574.63;;;9.85;84.69
11314;BME280;5712;48.858;9.206;2022-12-29T06:57:05;97583.38;;;9.85;84.84
11314;BME280;5712;48.858;9.206;2022-12-29T06:59:31;97580.69;;;9.74;84.73
11314;BME280;5712;48.858;9.206;2022-12-29T07:01:58;97594.91;;;9.61;85.31
11314;BME280;5712;48.858;9.206;2022-12-29T07:04:24;97596.59;;;9.62;85.25
11314;BME280;5712;48.858;9.206;2022-12-29T07:06:51;97601.25;;;9.58;85.18
11314;BME280;5712;48.858;9.206;2022-12-29T07:09:17;97591.97;;;9.53;84.67
11314;BME280;5712;48.858;9.206;2022-12-29T07:11:44;97597.09;;;9.43;85.24
11314;BME280;5712;48.858;9.206;2022-12-29T07:14:12;97593.28;;;9.47;84.87
11314;BME280;5712;48.858;9.206;2022-12-29T07:16:38;97590.22;;;9.41;84.85
11314;BME280;5712;48.858;9.206;2022-12-29T07:19:05;97586.16;;;9.37;85.32
11314;BME280;5712;48.858;9.206;2022-12-29T07:21:31;97589.59;;;9.26;85.77
11314;BME280;5712;48.858;9.206;2022-12-29T07:23:58;97586.00;;;9.27;84.73
11314;BME280;5712;48.858;9.206;2022-12-29T07:26:24;97583.19;;;9.41;83.41
11314;BME280;5712;48.858;9.206;2022-12-29T07:28:51;97580.00;;;9.49;82.57
11314;BME280;5712;48.858;9.206;2022-12-29T07:31:20;97576.91;;;9.55;82.33
11314;BME280;5712;48.858;9.206;2022-12-29T07:33:47;97574.97;;;9.57;82.43
11314;BME280;5712;48.858;9.206;2022-12-29T07:36:15;97580.88;;;9.60;81.64
11314;BME280;5712;48.858;9.206;2022-12-29T07:38:42;97570.94;;;9.64;81.45
11314;BME280;5712;48.858;9.206;2022-12-29T07:41:09;97565.94;;;9.72;81.03
11314;BME280;5712;48.858;9.206;2022-12-29T07:43:35;97569.03;;;9.66;80.99
11314;BME280;5712;48.858;9.206;2022-12-29T07:46:02;97577.06;;;9.64;81.18
11314;BME280;5712;48.858;9.206;2022-12-29T07:48:30;97569.50;;;9.71;79.93
11314;BME280;5712;48.858;9.206;2022-12-29T07:50:58;97580.97;;;9.59;81.47
11314;BME280;5712;48.858;9.206;2022-12-29T07:53:25;97590.31;;;9.52;81.29
11314;BME280;5712;48.858;9.206;2022-12-29T07:55:51;97597.69;;;9.47;82.28
11314;BME280;5712;48.858;9.206;2022-12-29T07:58:18;97597.50;;;9.50;81.82
11314;BME280;5712;48.858;9.206;2022-12-29T08:00:44;97601.28;;;9.46;82.73
11314;BME280;5712;48.858;9.206;2022-12-29T08:03:11;97613.16;;;9.40;83.41
11314;BME280;5712;48.858;9.206;2022-12-29T08:05:38;97609.72;;;9.51;82.54
11314;BME280;5712;48.858;9.206;2022-12-29T08:08:05;97611.34;;;9.64;81.42
11314;BME280;5712;48.858;9.206;2022-12-29T08:10:31;97613.03;;;9.65;81.92
11314;BME280;5712;48.858;9.206;2022-12-29T08:12:58;97619.66;;;9.71;82.02
11314;BME280;5712;48.858;9.206;2022-12-29T08:15:24;97613.72;;;9.80;81.66
11314;BME280;5712;48.858;9.206;2022-12-29T08:17:51;97617.34;;;9.90;81.43
11314;BME280;5712;48.858;9.206;2022-12-29T08:20:17;97631.03;;;9.95;82.09
11314;BME280;5712;48.858;9.206;2022-12-29T08:22:45;97626.97;;;10.02;82.51
11314;BME280;5712;48.858;9.206;2022-12-29T08:25:12;97629.94;;;10.10;80.84
11314;BME280;5712;48.858;9.206;2022-12-29T08:27:39;97621.53;;;10.16;81.40
11314;BME280;5712;48.858;9.206;2022-12-29T08:30:06;97618.41;;;10.11;80.50
11314;BME280;5712;48.858;9.206;2022-12-29T08:32:33;97622.72;;;10.12;81.89
11314;BME280;5712;48.858;9.206;2022-12-29T08:34:59;97622.13;;;10.08;81.26
11314;BME280;5712;48.858;9.206;2022-12-29T08:37:26;97619.97;;;10.13;81.95
11314;BME280;5712;48.858;9.206;2022-12-29T08:39:54;97623.78;;;10.09;81.95
11314;BME280;5712;48.858;9.206;2022-12-29T08:42:20;97613.47;;;10.06;82.39
11314;BME280;5712;48.858;9.206;2022-12-29T08:44:47;97614.31;;;10.07;81.49
11314;BME280;5712;48.858;9.206;2022-12-29T08:47:13;97607.56;;;10.03;81.52
11314;BME280;5712;48.858;9.206;2022-12-29T08:49:40;97610.50;;;9.98;82.11
11314;BME280;5712;48.858;9.206;2022-12-29T08:52:07;97620.97;;;10.00;82.54
11314;BME280;5712;48.858;9.206;2022-12-29T08:54:34;97631.03;;;9.95;81.87
11314;BME280;5712;48.858;9.206;2022-12-29T08:57:01;97620.75;;;10.03;81.62
11314;BME280;5712;48.858;9.206;2022-12-29T08:59:28;97634.16;;;10.00;81.63
11314;BME280;5712;48.858;9.206;2022-12-29T09:01:54;97630.91;;;10.09;82.06
11314;BME280;5712;48.858;9.206;2022-12-29T09:04:21;97629.97;;;10.21;82.13
11314;BME280;5712;48.858;9.206;2022-12-29T09:06:49;97631.53;;;10.23;80.83
11314;BME280;5712;48.858;9.206;2022-12-29T09:09:15;97640.78;;;10.29;81.02
11314;BME280;5712;48.858;9.206;2022-12-29T09:11:42;97639.25;;;10.37;81.12
11314;BME280;5712;48.858;9.206;2022-12-29T09:14:10;97645.50;;;10.47;80.42
11314;BME280;5712;48.858;9.206;2022-12-29T09:16:37;97653.69;;;10.55;81.00
11314;BME280;5712;48.858;9.206;2022-12-29T09:19:04;97653.44;;;10.58;81.23
11314;BME280;5712;48.858;9.206;2022-12-29T09:21:30;97652.63;;;10.69;81.71
11314;BME280;5712;48.858;9.206;2022-12-29T09:23:57;97646.41;;;10.70;80.33
11314;BME280;5712;48.858;9.206;2022-12-29T09:26:23;97651.22;;;10.76;79.98
11314;BME280;5712;48.858;9.206;2022-12-29T09:28:50;97650.84;;;10.80;81.04
11314;BME280;5712;48.858;9.206;2022-12-29T09:31:18;97637.97;;;10.87;80.17
11314;BME280;5712;48.858;9.206;2022-12-29T09:33:44;97649.78;;;10.94;79.55
11314;BME280;5712;48.858;9.206;2022-12-29T09:36:11;97653.63;;;11.01;80.13
11314;BME280;5712;48.858;9.206;2022-12-29T09:38:38;97649.03;;;11.03;80.00
11314;BME280;5712;48.858;9.206;2022-12-29T09:41:06;97641.59;;;11.08;79.80
11314;BME280;5712;48.858;9.206;2022-12-29T09:43:53;97648.31;;;11.23;79.17
11314;BME280;5712;48.858;9.206;2022-12-29T09:46:26;97632.22;;;11.26;77.25
11314;BME280;5712;48.858;9.206;2022-12-29T09:48:59;97633.38;;;11.33;77.51
11314;BME280;5712;48.858;9.206;2022-12-29T09:51:31;97637.50;;;11.37;78.46
11314;BME280;5712;48.858;9.206;2022-12-29T09:54:02;97636.63;;;11.36;78.52
11314;BME280;5712;48.858;9.206;2022-12-29T09:56:30;97642.50;;;11.40;78.73
11314;BME280;5712;48.858;9.206;2022-12-29T09:59:00;97630.00;;;11.42;77.01
11314;BME280;5712;48.858;9.206;2022-12-29T10:01:32;97625.44;;;11.44;77.12
11314;BME280;5712;48.858;9.206;2022-12-29T10:04:01;97640.09;;;11.48;78.00
11314;BME280;5712;48.858;9.206;2022-12-29T10:06:33;97638.41;;;11.47;78.29
11314;BME280;5712;48.858;9.206;2022-12-29T10:09:12;97640.34;;;11.45;77.30
11314;BME280;5712;48.858;9.206;2022-12-29T10:11:55;97637.22;;;11.40;77.89
11314;BME280;5712;48.858;9.206;2022-12-29T10:14:35;97628.81;;;11.35;77.30
11314;BME280;5712;48.858;9.206;2022-12-29T10:17:19;97619.41;;;11.64;74.86
11314;BME280;5712;48.858;9.206;2022-12-29T10:22:53;97616.88;;;11.94;73.41
11314;BME280;5712;48.858;9.206;2022-12-29T10:25:26;97618.75;;;12.03;72.92
11314;BME280;5712;48.858;9.206;2022-12-29T10:27:58;97603.28;;;12.19;71.60
11314;BME280;5712;48.858;9.206;2022-12-29T10:30:25;97613.75;;;12.20;72.26
11314;BME280;5712;48.858;9.206;2022-12-29T10:32:56;97626.16;;;12.20;73.14
11314;BME280;5712;48.858;9.206;2022-12-29T10:35:26;97612.66;;;12.23;72.39
11314;BME280;5712;48.858;9.206;2022-12-29T10:37:57;97599.41;;;12.43;70.52
11314;BME280;5712;48.858;9.206;2022-12-29T10:40:27;97599.53;;;12.42;70.17
11314;BME280;5712;48.858;9.206;2022-12-29T10:42:57;97603.88;;;12.43;70.56
11314;BME280;5712;48.858;9.206;2022-12-29T10:45:26;97592.75;;;12.49;69.93
11314;BME280;5712;48.858;9.206;2022-12-29T10:48:00;97594.13;;;12.43;70.34
11314;BME280;5712;48.858;9.206;2022-12-29T10:50:27;97607.50;;;12.42;71.12
11314;BME280;5712;48.858;9.206;2022-12-29T10:52:57;97621.72;;;12.41;72.05
11314;BME280;5712;48.858;9.206;2022-12-29T10:55:28;97623.38;;;12.42;71.88
11314;BME280;5712;48.858;9.206;2022-12-29T10:58:00;97612.28;;;12.48;71.29
11314;BME280;5712;48.858;9.206;2022-12-29T11:00:30;97612.72;;;12.53;71.36
11314;BME280;5712;48.858;9.206;2022-12-29T11:03:28;97624.53;;;12.49;72.61
11314;BME280;5712;48.858;9.206;2022-12-29T11:06:00;97638.78;;;12.48;73.61
11314;BME280;5712;48.858;9.206;2022-12-29T11:08:32;97638.78;;;12.48;74.32
11314;BME280;5712;48.858;9.206;2022-12-29T11:11:00;97637.34;;;12.44;74.74
11314;BME280;5712;48.858;9.206;2022-12-29T11:13:29;97651.31;;;12.46;76.19
11314;BME280;5712;48.858;9.206;2022-12-29T11:15:56;97650.19;;;12.48;76.52
11314;BME280;5712;48.858;9.206;2022-12-29T11:18:26;97646.44;;;12.51;76.52
11314;BME280;5712;48.858;9.206;2022-12-29T11:20:54;97646.09;;;12.55;75.81
11314;BME280;5712;48.858;9.206;2022-12-29T11:23:29;97651.22;;;12.57;76.74
11314;BME280;5712;48.858;9.206;2022-12-29T11:26:14;97627.94;;;12.60;74.96
11314;BME280;5712;48.858;9.206;2022-12-29T11:28:42;97617.09;;;12.63;73.26
11314;BME280;5712;48.858;9.206;2022-12-29T11:31:10;97605.28;;;12.67;71.95
11314;BME280;5712;48.858;9.206;2022-12-29T11:33:38;97605.56;;;12.74;71.70
11314;BME280;5712;48.858;9.206;2022-12-29T11:36:08;97606.28;;;12.76;70.86
11314;BME280;5712;48.858;9.206;2022-12-29T11:38:39;97614.22;;;12.76;70.92
11314;BME280;5712;48.858;9.206;2022-12-29T11:41:10;97609.19;;;12.73;71.48
11314;BME280;5712;48.858;9.206;2022-12-29T11:43:40;97612.63;;;12.64;70.94
11314;BME280;5712;48.858;9.206;2022-12-29T11:46:14;97578.88;;;12.66;68.65
11314;BME280;5712;48.858;9.206;2022-12-29T11:48:48;97593.69;;;12.68;67.80
11314;BME280;5712;48.858;9.206;2022-12-29T11:51:22;97607.84;;;12.58;70.40
11314;BME280;5712;48.858;9.206;2022-12-29T11:53:51;97593.88;;;12.56;68.99
11314;BME280;5712;48.858;9.206;2022-12-29T11:56:22;97595.84;;;12.54;68.28
11314;BME280;5712;48.858;9.206;2022-12-29T11:58:56;97610.84;;;12.44;72.62
11314;BME280;5712;48.858;9.206;2022-12-29T12:01:30;97617.16;;;12.32;72.08
11314;BME280;5712;48.858;9.206;2022-12-29T12:04:02;97608.53;;;12.30;70.93
11314;BME280;5712;48.858;9.206;2022-12-29T12:06:33;97617.44;;;12.29;70.60
11314;BME280;5712;48.858;9.206;2022-12-29T12:09:04;97622.00;;;12.27;71.04
11314;BME280;5712;48.858;9.206;2022-12-29T12:11:34;97645.28;;;12.23;74.25
11314;BME280;5712;48.858;9.206;2022-12-29T12:14:08;97673.25;;;12.16;77.78
11314;BME280;5712;48.858;9.206;2022-12-29T12:16:41;97666.16;;;12.17;78.52
11314;BME280;5712;48.858;9.206;2022-12-29T12:19:16;97683.75;;;12.07;79.72
11314;BME280;5712;48.858;9.206;2022-12-29T12:21:51;97696.06;;;11.97;82.37
11314;BME280;5712;48.858;9.206;2022-12-29T12:24:38;97688.63;;;11.91;83.26
11314;BME280;5712;48.858;9.206;2022-12-29T12:27:12;97673.47;;;11.93;82.61
11314;BME280;5712;48.858;9.206;2022-12-29T12:29:46;97681.81;;;11.88;82.97
11314;BME280;5712;48.858;9.206;2022-12-29T12:32:19;97676.84;;;11.84;83.17
11314;BME280;5712;48.858;9.206;2022-12-29T12:34:48;97680.59;;;11.81;84.32
11314;BME280;5712;48.858;9.206;2022-12-29T12:37:34;97675.28;;;11.81;84.73
11314;BME280;5712;48.858;9.206;2022-12-29T12:40:27;97670.34;;;11.88;85.45
11314;BME280;5712;48.858;9.206;2022-12-29T12:43:04;97665.13;;;11.97;86.16
11314;BME280;5712;48.858;9.206;2022-12-29T12:45:43;97665.25;;;11.96;86.08
11314;BME280;5712;48.858;9.206;2022-12-29T12:48:27;97657.91;;;11.99;86.02
11314;BME280;5712;48.858;9.206;2022-12-29T12:51:09;97647.66;;;12.06;84.97
11314;BME280;5712;48.858;9.206;2022-12-29T12:53:59;97637.66;;;12.09;85.62
11314;BME280;5712;48.858;9.206;2022-12-29T12:56:46;97637.53;;;12.11;85.56
11314;BME280;5712;48.858;9.206;2022-12-29T12:59:36;97634.09;;;12.20;84.94
11314;BME280;5712;48.858;9.206;2022-12-29T13:02:15;97630.97;;;12.15;84.51
11314;BME280;5712;48.858;9.206;2022-12-29T13:04:57;97634.38;;;12.17;83.74
11314;BME280;5712;48.858;9.206;2022-12-29T13:07:37;97625.19;;;12.21;83.31
11314;BME280;5712;48.858;9.206;2022-12-29T13:10:30;97625.59;;;12.37;83.57
11314;BME280;5712;48.858;9.206;2022-12-29T13:13:12;97624.38;;;12.41;84.53
11314;BME280;5712;48.858;9.206;2022-12-29T13:15:46;97616.72;;;12.47;83.58
11314;BME280;5712;48.858;9.206;2022-12-29T13:18:22;97616.94;;;12.35;83.84
11314;BME280;5712;48.858;9.206;2022-12-29T13:20:55;97631.41;;;12.31;84.58
11314;BME280;5712;48.858;9.206;2022-12-29T13:23:29;97629.13;;;12.26;85.42
11314;BME280;5712;48.858;9.206;2022-12-29T13:26:05;97628.28;;;12.26;85.79
11314;BME280;5712;48.858;9.206;2022-12-29T13:28:41;97617.81;;;12.24;85.61
11314;BME280;5712;48.858;9.206;2022-12-29T13:31:15;97617.09;;;12.22;84.94
11314;BME280;5712;48.858;9.206;2022-12-29T13:33:50;97615.44;;;12.21;84.89
11314;BME280;5712;48.858;9.206;2022-12-29T13:36:23;97609.56;;;12.18;85.60
11314;BME280;5712;48.858;9.206;2022-12-29T13:39:00;97609.22;;;12.11;85.13
11314;BME280;5712;48.858;9.206;2022-12-29T13:41:31;97610.31;;;12.09;85.48
11314;BME280;5712;48.858;9.206;2022-12-29T13:44:00;97608.97;;;12.14;84.77